Time;durP1;ratioP1;P1;durP2;ratioP2;P2;SDS_P1;SDS_P2;PMS_P1;PMS_P2;Temp;Humidity;BMP_temperature;BMP_pressure;BME280_temperature;BME280_humidity;BME280_pressure;Samples;Min_cycle;Max_cycle;Signal;HPM_P1;HPM_P2
2021/04/30 00:02:06;;;;;;;18.13;9.47;;;7.70;92.60;;;;;;5067871;28;20033;-75
2021/04/30 00:04:33;;;;;;;16.37;10.77;;;7.70;92.70;;;;;;5069950;28;20419;-75
2021/04/30 00:06:59;;;;;;;17.27;9.70;;;7.70;92.70;;;;;;5063268;28;20036;-75
2021/04/30 00:09:26;;;;;;;14.70;8.67;;;7.70;92.70;;;;;;5053828;28;20431;-75
2021/04/30 00:11:53;;;;;;;15.40;9.53;;;7.70;92.70;;;;;;5071756;28;20052;-75
2021/04/30 00:14:20;;;;;;;18.70;8.73;;;7.70;92.70;;;;;;5067875;28;20082;-75
2021/04/30 00:16:49;;;;;;;22.63;9.60;;;7.70;92.70;;;;;;5050941;28;20095;-75
2021/04/30 00:19:15;;;;;;;15.00;9.37;;;7.70;92.70;;;;;;5050576;28;20029;-74
2021/04/30 00:21:42;;;;;;;14.73;9.57;;;7.70;92.70;;;;;;5050151;28;20090;-75
2021/04/30 00:24:10;;;;;;;14.47;9.17;;;7.70;92.70;;;;;;5070203;28;20040;-75
2021/04/30 00:26:36;;;;;;;13.17;8.00;;;7.70;92.70;;;;;;5069986;28;20041;-75
2021/04/30 00:29:04;;;;;;;17.30;9.37;;;7.70;92.70;;;;;;5055558;28;20500;-75
2021/04/30 00:31:30;;;;;;;17.43;9.80;;;7.70;92.70;;;;;;5074737;28;20045;-75
2021/04/30 00:33:58;;;;;;;13.23;7.93;;;7.70;92.70;;;;;;5075152;28;20462;-75
2021/04/30 00:36:26;;;;;;;17.00;8.03;;;7.70;92.70;;;;;;5075742;28;20036;-75
2021/04/30 00:38:53;;;;;;;15.27;9.90;;;7.70;92.70;;;;;;5073626;28;20508;-74
2021/04/30 00:41:19;;;;;;;15.60;9.73;;;7.70;92.70;;;;;;5073897;28;20451;-75
2021/04/30 00:43:57;;;;;;;13.93;8.90;;;7.80;92.70;;;;;;5041225;28;20484;-75
2021/04/30 00:46:24;;;;;;;14.33;7.60;;;7.80;92.70;;;;;;5073412;28;20443;-74
2021/04/30 00:48:51;;;;;;;15.83;8.63;;;7.80;92.70;;;;;;5070645;28;20040;-74
2021/04/30 00:51:17;;;;;;;14.27;6.97;;;7.80;92.70;;;;;;5073114;28;20040;-74
2021/04/30 00:53:44;;;;;;;9.00;5.77;;;7.80;92.70;;;;;;5073265;28;20032;-75
2021/04/30 00:56:10;;;;;;;13.37;6.90;;;7.90;92.70;;;;;;5072956;28;20436;-75
2021/04/30 00:58:37;;;;;;;12.07;7.40;;;7.90;92.60;;;;;;5056896;28;20032;-75
2021/04/30 01:01:04;;;;;;;14.57;7.50;;;7.90;92.60;;;;;;5040278;28;20048;-75
2021/04/30 01:03:30;;;;;;;10.33;6.10;;;7.90;92.60;;;;;;5055542;28;20400;-74
2021/04/30 01:05:57;;;;;;;12.37;6.73;;;7.90;92.60;;;;;;5056502;28;20415;-75
2021/04/30 01:08:23;;;;;;;13.17;7.00;;;7.90;92.90;;;;;;5073227;28;20040;-75
2021/04/30 01:10:50;;;;;;;11.23;6.23;;;7.90;92.60;;;;;;5055828;28;20475;-74
2021/04/30 01:13:16;;;;;;;20.80;8.87;;;7.90;92.60;;;;;;5060306;28;20040;-75
2021/04/30 01:15:43;;;;;;;17.23;7.87;;;7.90;92.60;;;;;;5072853;28;20130;-75
2021/04/30 01:18:10;;;;;;;13.33;9.03;;;7.90;92.60;;;;;;5055913;28;20048;-74
2021/04/30 01:20:36;;;;;;;12.43;7.83;;;8.00;92.70;;;;;;5048676;28;20040;-75
2021/04/30 01:23:03;;;;;;;18.80;8.60;;;7.90;92.70;;;;;;5054603;28;20045;-75
2021/04/30 01:25:34;;;;;;;19.03;8.90;;;7.90;92.60;;;;;;5072258;28;20033;-75
2021/04/30 01:28:02;;;;;;;13.53;7.20;;;7.90;92.60;;;;;;5072374;28;20053;-75
2021/04/30 01:30:32;;;;;;;11.10;7.07;;;7.90;92.70;;;;;;5086239;28;20033;-74
2021/04/30 01:33:00;;;;;;;13.10;8.10;;;8.00;92.70;;;;;;5066955;28;20052;-75
2021/04/30 01:35:32;;;;;;;13.87;7.07;;;8.00;92.60;;;;;;5052230;28;20094;-74
2021/04/30 01:38:00;;;;;;;14.55;8.25;;;8.00;92.60;;;;;;5065867;28;20113;-75
2021/04/30 01:40:30;;;;;;;12.60;6.83;;;8.00;92.70;;;;;;5072553;28;20037;-74
2021/04/30 01:42:56;;;;;;;10.93;6.93;;;8.00;92.70;;;;;;5055944;28;20045;-74
2021/04/30 01:45:23;;;;;;;8.77;4.97;;;8.00;92.60;;;;;;5072885;28;20036;-77
2021/04/30 01:47:49;;;;;;;11.17;6.07;;;8.00;92.60;;;;;;5073298;28;20045;-77
2021/04/30 01:50:16;;;;;;;12.13;6.93;;;8.00;92.60;;;;;;5040097;28;20488;-78
2021/04/30 01:52:42;;;;;;;13.37;8.23;;;8.00;92.90;;;;;;5053707;28;20480;-77
2021/04/30 01:55:09;;;;;;;13.53;7.20;;;8.00;92.60;;;;;;5056834;28;20057;-77
2021/04/30 01:57:37;;;;;;;12.67;6.57;;;8.00;92.60;;;;;;5045330;28;20048;-77
2021/04/30 02:00:05;;;;;;;11.93;5.97;;;8.00;92.70;;;;;;5072853;28;20044;-77
2021/04/30 02:02:49;;;;;;;10.37;5.77;;;8.00;92.60;;;;;;5074463;28;20059;-77
2021/04/30 02:05:15;;;;;;;11.17;5.20;;;8.10;92.60;;;;;;5074325;28;20040;-77
2021/04/30 02:07:42;;;;;;;8.57;4.90;;;8.10;92.60;;;;;;5072707;28;20043;-77
2021/04/30 02:10:18;;;;;;;7.10;3.90;;;8.10;92.60;;;;;;5056514;28;20139;-77
2021/04/30 02:12:46;;;;;;;8.37;4.53;;;8.10;92.60;;;;;;5073916;28;20032;-77
2021/04/30 02:15:15;;;;;;;7.30;4.17;;;8.10;92.60;;;;;;5073642;28;20033;-77
2021/04/30 02:17:42;;;;;;;10.97;5.10;;;8.10;92.60;;;;;;5035873;28;20045;-77
2021/04/30 02:20:10;;;;;;;7.43;4.50;;;8.20;92.60;;;;;;5089168;28;20041;-77
2021/04/30 02:22:37;;;;;;;8.33;3.97;;;8.20;92.60;;;;;;5072459;28;20488;-76
2021/04/30 02:25:06;;;;;;;12.97;6.00;;;8.20;92.60;;;;;;5073747;28;20492;-77
2021/04/30 02:27:33;;;;;;;12.37;6.67;;;8.20;92.80;;;;;;5072242;28;20377;-76
2021/04/30 02:30:00;;;;;;;14.07;8.03;;;8.20;92.80;;;;;;5072162;28;20055;-74
2021/04/30 02:32:29;;;;;;;14.67;7.40;;;8.20;92.60;;;;;;5071532;28;20071;-74
2021/04/30 02:34:57;;;;;;;11.53;6.20;;;8.20;92.60;;;;;;5071183;28;20041;-75
2021/04/30 02:37:26;;;;;;;13.03;7.77;;;8.20;92.80;;;;;;5054173;28;20400;-74
2021/04/30 02:39:52;;;;;;;13.80;6.30;;;8.10;92.60;;;;;;5070619;28;20129;-74
2021/04/30 02:42:19;;;;;;;9.43;5.88;;;8.10;92.60;;;;;;5063355;28;20442;-73
2021/04/30 02:44:48;;;;;;;9.53;5.23;;;8.20;92.60;;;;;;5070767;28;20519;-74
2021/04/30 02:47:15;;;;;;;9.10;5.90;;;8.20;92.60;;;;;;5060638;28;20036;-74
2021/04/30 02:49:44;;;;;;;8.98;5.35;;;8.20;92.60;;;;;;5070322;28;20255;-74
2021/04/30 02:52:14;;;;;;;8.40;4.77;;;8.20;92.60;;;;;;5072046;28;20032;-74
2021/04/30 02:54:41;;;;;;;11.73;5.30;;;8.20;92.60;;;;;;5071119;28;20032;-73
2021/04/30 02:57:08;;;;;;;8.37;4.70;;;8.20;92.60;;;;;;5071698;28;20035;-73
2021/04/30 02:59:35;;;;;;;8.47;4.80;;;8.20;92.50;;;;;;5050618;28;20045;-74
2021/04/30 03:02:02;;;;;;;7.40;4.40;;;8.30;92.60;;;;;;5065881;28;20033;-73
2021/04/30 03:04:30;;;;;;;6.85;4.03;;;8.30;92.50;;;;;;5070257;28;20045;-73
2021/04/30 03:06:57;;;;;;;10.90;5.25;;;8.30;92.50;;;;;;5071777;28;20444;-74
2021/04/30 03:09:24;;;;;;;6.70;4.33;;;8.30;92.50;;;;;;5071047;28;20442;-73
2021/04/30 03:11:50;;;;;;;8.53;4.40;;;8.30;92.50;;;;;;5070330;28;20078;-73
2021/04/30 03:14:17;;;;;;;8.40;4.28;;;8.30;92.50;;;;;;5070242;28;20057;-73
2021/04/30 03:16:43;;;;;;;7.47;3.95;;;8.30;92.50;;;;;;5069592;28;20075;-73
2021/04/30 03:19:10;;;;;;;7.68;3.72;;;8.40;92.50;;;;;;5069680;28;20055;-74
2021/04/30 03:21:37;;;;;;;7.97;3.80;;;8.40;92.50;;;;;;5069985;28;20040;-73
2021/04/30 03:24:05;;;;;;;6.82;3.58;;;8.40;92.40;;;;;;5070333;28;20515;-73
2021/04/30 03:26:32;;;;;;;6.32;4.13;;;8.40;92.40;;;;;;5052077;28;20133;-73
2021/04/30 03:28:59;;;;;;;6.50;3.42;;;8.40;92.40;;;;;;5069934;28;20094;-73
2021/04/30 03:31:26;;;;;;;6.93;4.03;;;8.40;92.40;;;;;;5069919;28;20048;-73
2021/04/30 03:33:53;;;;;;;9.10;4.25;;;8.40;92.40;;;;;;5070539;28;20043;-73
2021/04/30 03:36:20;;;;;;;9.35;5.00;;;8.40;92.40;;;;;;5050335;28;20037;-73
2021/04/30 03:38:47;;;;;;;10.73;6.27;;;8.40;92.40;;;;;;5055268;28;20091;-73
2021/04/30 03:41:15;;;;;;;8.87;5.73;;;8.40;92.40;;;;;;5069849;28;20488;-73
2021/04/30 03:43:42;;;;;;;8.27;5.83;;;8.40;92.40;;;;;;5071250;28;20055;-73
2021/04/30 03:46:09;;;;;;;9.27;4.43;;;8.40;92.40;;;;;;5070424;28;20106;-73
2021/04/30 03:48:35;;;;;;;7.25;4.13;;;8.30;92.40;;;;;;5070179;28;20126;-73
2021/04/30 03:51:02;;;;;;;7.80;3.65;;;8.40;92.70;;;;;;5070311;28;20169;-73
2021/04/30 03:53:29;;;;;;;7.40;4.13;;;8.30;92.40;;;;;;5071577;28;20045;-73
2021/04/30 03:55:56;;;;;;;6.33;3.77;;;8.30;92.40;;;;;;5053003;28;20040;-73
2021/04/30 03:58:22;;;;;;;6.90;4.60;;;8.40;92.50;;;;;;5069923;28;20040;-73
2021/04/30 04:00:49;;;;;;;8.13;4.28;;;8.30;92.40;;;;;;5069904;28;20557;-73
2021/04/30 04:03:15;;;;;;;8.13;3.83;;;8.40;92.50;;;;;;5051507;28;20092;-73
2021/04/30 04:05:42;;;;;;;6.32;3.35;;;8.40;92.50;;;;;;5070715;28;20032;-74
2021/04/30 04:08:08;;;;;;;8.27;3.47;;;8.40;92.50;;;;;;5057680;28;20052;-73
2021/04/30 04:10:36;;;;;;;5.95;2.75;;;8.30;92.50;;;;;;5074004;28;20048;-73
2021/04/30 04:13:20;;;;;;;5.70;3.23;;;8.40;92.50;;;;;;5074928;28;20036;-74
2021/04/30 04:15:47;;;;;;;8.47;3.63;;;8.40;92.50;;;;;;5073584;28;20086;-73
2021/04/30 04:18:16;;;;;;;7.35;3.45;;;8.40;92.50;;;;;;5074585;28;20094;-73
2021/04/30 04:20:43;;;;;;;6.43;3.67;;;8.40;92.50;;;;;;5053836;28;20118;-73
2021/04/30 04:23:10;;;;;;;7.50;3.33;;;8.30;92.50;;;;;;5071542;28;20496;-73
2021/04/30 04:25:38;;;;;;;5.88;2.78;;;8.30;92.50;;;;;;5073359;28;20384;-73
2021/04/30 04:28:05;;;;;;;6.93;3.42;;;8.30;92.50;;;;;;5056817;28;20053;-73
2021/04/30 04:30:33;;;;;;;6.25;3.60;;;8.30;92.50;;;;;;5075119;28;20033;-74
2021/04/30 04:33:00;;;;;;;8.43;3.30;;;8.30;92.40;;;;;;5075340;28;20048;-73
2021/04/30 04:35:27;;;;;;;5.85;2.83;;;8.30;92.50;;;;;;5073034;28;20053;-73
2021/04/30 04:37:54;;;;;;;5.72;2.92;;;8.30;92.50;;;;;;5056608;28;20454;-73
2021/04/30 04:40:20;;;;;;;5.45;2.65;;;8.30;92.50;;;;;;5074222;28;20052;-73
2021/04/30 04:42:47;;;;;;;5.95;2.92;;;8.30;92.50;;;;;;5053175;28;20033;-73
2021/04/30 04:45:15;;;;;;;6.15;3.42;;;8.30;92.50;;;;;;5069630;28;20033;-74
2021/04/30 04:47:42;;;;;;;6.38;3.35;;;8.30;92.50;;;;;;5074674;28;20059;-74
2021/04/30 04:50:11;;;;;;;8.13;3.78;;;8.30;92.40;;;;;;5073714;28;20393;-74
2021/04/30 04:52:38;;;;;;;7.93;3.38;;;8.30;92.40;;;;;;5073367;28;20045;-75
2021/04/30 04:55:05;;;;;;;5.95;3.22;;;8.40;92.40;;;;;;5075103;28;20036;-74
2021/04/30 04:57:32;;;;;;;7.07;3.93;;;8.40;92.40;;;;;;5074833;28;20036;-76
2021/04/30 04:59:59;;;;;;;8.35;4.53;;;8.40;92.40;;;;;;5037420;28;20045;-74
2021/04/30 05:02:25;;;;;;;6.10;3.90;;;8.50;92.30;;;;;;5053654;28;20037;-76
2021/04/30 05:04:52;;;;;;;8.95;5.00;;;8.50;92.30;;;;;;5057245;28;20112;-76
2021/04/30 05:07:19;;;;;;;10.37;4.90;;;8.50;92.30;;;;;;5074261;28;20422;-77
2021/04/30 05:09:46;;;;;;;8.27;5.13;;;8.50;92.30;;;;;;5054206;28;20562;-76
2021/04/30 05:12:12;;;;;;;9.23;5.40;;;8.50;92.30;;;;;;5067768;28;20041;-75
2021/04/30 05:14:39;;;;;;;7.40;4.20;;;8.50;92.30;;;;;;5074877;28;20040;-76
2021/04/30 05:17:07;;;;;;;7.07;3.55;;;8.60;92.40;;;;;;5073490;28;20059;-76
2021/04/30 05:19:34;;;;;;;6.95;3.97;;;8.60;92.40;;;;;;5072779;28;20419;-75
2021/04/30 05:22:05;;;;;;;7.43;4.05;;;8.60;92.30;;;;;;5072781;28;20044;-75
2021/04/30 05:24:34;;;;;;;7.00;4.00;;;8.60;92.30;;;;;;5068338;28;20044;-74
2021/04/30 05:27:04;;;;;;;7.80;4.00;;;8.70;92.30;;;;;;5073333;28;20525;-74
2021/04/30 05:29:33;;;;;;;7.25;3.97;;;8.70;92.30;;;;;;5072273;28;20052;-74
2021/04/30 05:32:00;;;;;;;7.40;4.60;;;8.70;92.30;;;;;;5073260;28;20036;-74
2021/04/30 05:34:31;;;;;;;13.23;5.35;;;8.70;92.20;;;;;;5071571;28;20391;-74
2021/04/30 05:36:58;;;;;;;8.65;5.10;;;8.70;92.20;;;;;;5071340;28;20052;-74
2021/04/30 05:39:24;;;;;;;9.63;5.78;;;8.70;92.20;;;;;;5071799;28;20480;-74
2021/04/30 05:41:51;;;;;;;10.57;6.35;;;8.80;92.20;;;;;;5072084;28;20049;-74
2021/04/30 05:44:17;;;;;;;10.73;5.22;;;8.80;92.20;;;;;;5072915;28;20044;-74
2021/04/30 05:46:43;;;;;;;11.07;5.25;;;8.80;92.20;;;;;;5055096;28;20068;-74
2021/04/30 05:49:10;;;;;;;9.82;5.35;;;8.90;92.20;;;;;;5055945;28;20070;-74
2021/04/30 05:51:37;;;;;;;8.65;5.05;;;8.90;92.20;;;;;;5054727;28;20488;-73
2021/04/30 05:54:03;;;;;;;11.10;6.35;;;8.90;92.20;;;;;;5073421;28;20070;-74
2021/04/30 05:56:30;;;;;;;10.73;5.93;;;8.90;92.10;;;;;;5072919;28;20393;-74
2021/04/30 05:58:58;;;;;;;9.60;6.03;;;8.90;92.20;;;;;;5073602;28;20102;-74
2021/04/30 06:01:25;;;;;;;10.20;5.55;;;8.90;92.20;;;;;;5071566;28;20491;-74
2021/04/30 06:03:52;;;;;;;8.77;5.35;;;8.90;92.20;;;;;;5053021;28;20098;-74
2021/04/30 06:06:18;;;;;;;9.32;5.18;;;8.90;92.40;;;;;;5071454;28;20040;-74
2021/04/30 06:08:45;;;;;;;8.95;4.93;;;9.00;92.20;;;;;;5071645;28;20098;-74
2021/04/30 06:11:11;;;;;;;9.23;4.85;;;9.00;92.10;;;;;;5055009;28;20041;-74
2021/04/30 06:13:38;;;;;;;9.05;6.10;;;9.10;92.10;;;;;;5054894;28;20110;-74
2021/04/30 06:16:05;;;;;;;6.97;5.15;;;9.10;92.10;;;;;;5070983;28;20385;-74
2021/04/30 06:18:32;;;;;;;9.52;5.13;;;9.10;92.10;;;;;;5071587;28;20040;-74
2021/04/30 06:20:59;;;;;;;7.07;4.50;;;9.10;92.10;;;;;;5071123;28;20068;-74
2021/04/30 06:23:26;;;;;;;7.18;3.90;;;9.10;92.10;;;;;;5072680;28;20037;-73
2021/04/30 06:25:52;;;;;;;7.97;4.28;;;9.10;92.10;;;;;;5050478;28;20075;-74
2021/04/30 06:28:19;;;;;;;8.57;4.43;;;9.20;92.10;;;;;;5068035;28;20063;-74
2021/04/30 06:30:46;;;;;;;8.55;4.70;;;9.20;92.00;;;;;;5070716;28;20446;-74
2021/04/30 06:33:12;;;;;;;9.90;5.97;;;9.20;92.30;;;;;;5071375;28;20454;-74
2021/04/30 06:35:39;;;;;;;11.15;5.53;;;9.20;92.00;;;;;;5071587;28;20032;-74
2021/04/30 06:38:06;;;;;;;8.63;5.22;;;9.10;92.00;;;;;;5072603;28;20056;-74
2021/04/30 06:40:33;;;;;;;9.60;5.72;;;9.10;92.00;;;;;;5034952;28;20425;-74
2021/04/30 06:42:59;;;;;;;7.78;4.88;;;9.10;92.00;;;;;;5066981;28;20033;-74
2021/04/30 06:45:26;;;;;;;9.32;5.63;;;9.10;92.00;;;;;;5071987;28;20483;-74
2021/04/30 06:47:53;;;;;;;7.20;4.80;;;9.10;92.00;;;;;;5072749;28;20032;-73
2021/04/30 06:50:21;;;;;;;9.32;5.40;;;9.10;92.00;;;;;;5072118;28;20041;-74
2021/04/30 06:52:53;;;;;;;10.15;5.28;;;9.20;92.00;;;;;;5055408;28;20072;-75
2021/04/30 06:55:20;;;;;;;8.82;4.55;;;9.20;92.00;;;;;;5071427;28;20045;-76
2021/04/30 06:57:46;;;;;;;10.15;4.78;;;9.20;92.00;;;;;;5054939;28;20109;-76
2021/04/30 07:00:16;;;;;;;6.45;4.05;;;9.30;92.00;;;;;;5072255;28;20051;-75
2021/04/30 07:02:44;;;;;;;8.93;4.95;;;9.30;92.00;;;;;;5063004;28;20044;-75
2021/04/30 07:05:11;;;;;;;7.30;4.00;;;9.40;92.00;;;;;;5070298;28;20043;-76
2021/04/30 07:07:38;;;;;;;8.52;4.50;;;9.40;92.00;;;;;;5071758;28;20116;-75
2021/04/30 07:10:06;;;;;;;8.73;4.75;;;9.50;91.90;;;;;;5051216;28;20076;-75
2021/04/30 07:12:33;;;;;;;9.45;4.90;;;9.60;91.90;;;;;;5068848;28;20044;-76
2021/04/30 07:15:01;;;;;;;7.18;4.85;;;9.70;91.90;;;;;;5067022;28;20044;-77
2021/04/30 07:17:28;;;;;;;7.80;4.72;;;9.70;91.80;;;;;;5070503;28;20090;-76
2021/04/30 07:19:54;;;;;;;11.75;5.95;;;9.80;92.00;;;;;;5072063;28;20090;-77
2021/04/30 07:22:21;;;;;;;8.55;5.50;;;9.90;91.70;;;;;;5051156;28;20473;-77
2021/04/30 07:24:47;;;;;;;8.55;5.63;;;9.90;91.70;;;;;;5054334;28;20036;-77
2021/04/30 07:27:17;;;;;;;9.30;5.93;;;10.00;91.70;;;;;;5071031;28;20087;-76
2021/04/30 07:29:45;;;;;;;9.73;5.40;;;10.10;91.70;;;;;;5070761;28;20060;-76
2021/04/30 07:32:12;;;;;;;10.57;6.63;;;10.10;91.50;;;;;;5070544;28;20048;-77
2021/04/30 07:34:41;;;;;;;9.77;6.45;;;10.20;91.50;;;;;;5072188;28;20119;-76
2021/04/30 07:37:09;;;;;;;9.45;6.63;;;10.20;91.40;;;;;;5053753;28;20110;-76
2021/04/30 07:39:36;;;;;;;11.13;6.72;;;10.30;91.30;;;;;;5074313;28;20135;-76
2021/04/30 07:42:04;;;;;;;9.82;6.28;;;10.30;91.30;;;;;;5074572;28;20040;-76
2021/04/30 07:44:31;;;;;;;11.32;5.60;;;10.30;91.30;;;;;;5074711;28;20094;-75
2021/04/30 07:46:59;;;;;;;14.35;7.15;;;10.40;91.30;;;;;;5075849;28;20123;-75
2021/04/30 07:49:26;;;;;;;9.60;5.47;;;10.40;91.20;;;;;;5074494;28;20052;-75
2021/04/30 07:51:53;;;;;;;9.68;6.10;;;10.50;91.20;;;;;;5073870;28;20669;-76
2021/04/30 07:54:20;;;;;;;8.52;5.75;;;10.50;91.10;;;;;;5075283;28;20492;-76
2021/04/30 07:56:47;;;;;;;11.38;7.15;;;10.60;91.40;;;;;;5075853;28;20147;-76
2021/04/30 07:59:14;;;;;;;11.27;7.43;;;10.60;91.00;;;;;;5074162;28;20090;-77
2021/04/30 08:01:41;;;;;;;9.95;6.65;;;10.60;90.90;;;;;;5075433;28;20045;-76
2021/04/30 08:04:07;;;;;;;12.35;7.30;;;10.50;90.90;;;;;;5073219;28;20040;-76
2021/04/30 08:06:34;;;;;;;11.82;6.28;;;10.50;91.00;;;;;;5075691;28;20041;-74
2021/04/30 08:09:01;;;;;;;9.52;5.55;;;10.50;91.00;;;;;;5055526;28;20049;-75
2021/04/30 08:11:27;;;;;;;11.50;6.97;;;10.50;91.10;;;;;;5073240;28;20056;-75
2021/04/30 08:13:55;;;;;;;13.48;8.55;;;10.50;91.00;;;;;;5059318;28;20155;-75
2021/04/30 08:16:22;;;;;;;13.30;7.25;;;10.50;90.90;;;;;;5059979;28;20045;-73
2021/04/30 08:18:48;;;;;;;10.13;6.45;;;10.50;90.90;;;;;;5061852;28;20105;-73
2021/04/30 08:21:16;;;;;;;11.70;6.55;;;10.50;90.90;;;;;;5056900;28;20049;-73
2021/04/30 08:23:42;;;;;;;12.20;7.32;;;10.50;91.00;;;;;;5029196;28;20040;-73
2021/04/30 08:26:12;;;;;;;9.43;6.22;;;10.60;91.00;;;;;;5057774;28;20061;-73
2021/04/30 08:28:38;;;;;;;8.85;6.05;;;10.60;91.00;;;;;;5051913;28;20036;-73
2021/04/30 08:31:05;;;;;;;8.88;6.18;;;10.60;90.90;;;;;;5055379;28;20061;-73
2021/04/30 08:33:32;;;;;;;9.90;5.82;;;10.60;91.20;;;;;;5055087;28;20040;-73
2021/04/30 08:35:58;;;;;;;8.55;5.97;;;10.60;90.90;;;;;;5064991;28;20144;-73
2021/04/30 08:38:25;;;;;;;8.43;5.57;;;10.70;90.90;;;;;;5070222;28;20056;-73
2021/04/30 08:40:52;;;;;;;8.90;5.72;;;10.60;90.90;;;;;;5067923;28;20094;-73
2021/04/30 08:43:19;;;;;;;17.77;9.65;;;10.60;90.90;;;;;;5068102;28;20051;-74
2021/04/30 08:45:46;;;;;;;15.95;8.77;;;10.50;90.80;;;;;;5063227;28;20036;-73
2021/04/30 08:48:14;;;;;;;16.45;9.50;;;10.40;90.70;;;;;;5065581;28;20048;-74
2021/04/30 08:50:41;;;;;;;15.07;10.15;;;10.30;90.80;;;;;;5071023;28;20094;-75
2021/04/30 08:53:08;;;;;;;12.27;8.73;;;10.30;90.80;;;;;;5056493;28;20044;-76
2021/04/30 08:55:36;;;;;;;11.73;7.65;;;10.20;90.80;;;;;;5064591;28;20036;-76
2021/04/30 08:58:05;;;;;;;13.07;7.75;;;10.30;90.90;;;;;;5061312;28;20079;-76
2021/04/30 09:00:32;;;;;;;13.38;9.05;;;10.30;90.90;;;;;;5067859;28;20403;-74
2021/04/30 09:03:00;;;;;;;12.23;8.27;;;10.40;90.80;;;;;;5062266;28;20045;-76
2021/04/30 09:05:30;;;;;;;14.57;9.15;;;10.40;90.70;;;;;;5065973;28;20086;-74
2021/04/30 09:08:00;;;;;;;12.95;9.00;;;10.40;90.70;;;;;;5052662;28;20036;-75
2021/04/30 09:10:35;;;;;;;11.70;7.93;;;10.60;90.60;;;;;;5059395;28;20501;-75
2021/04/30 09:13:14;;;;;;;13.40;9.68;;;10.60;90.50;;;;;;5070698;28;20048;-75
2021/04/30 09:15:42;;;;;;;13.52;8.88;;;10.80;90.40;;;;;;5070796;28;20058;-74
2021/04/30 09:18:25;;;;;;;14.57;8.93;;;10.80;90.40;;;;;;5074272;28;20068;-74
2021/04/30 09:20:54;;;;;;;10.80;7.28;;;10.90;90.40;;;;;;5060182;28;20052;-75
2021/04/30 09:23:48;;;;;;;12.63;7.07;;;10.90;90.40;;;;;;5072971;28;20082;-75
2021/04/30 09:26:23;;;;;;;11.68;7.10;;;11.00;90.40;;;;;;5072863;28;20476;-76
2021/04/30 09:29:08;;;;;;;10.63;6.53;;;11.10;90.50;;;;;;5068952;28;20036;-75
2021/04/30 09:31:41;;;;;;;10.95;6.68;;;11.10;90.40;;;;;;5063059;28;20166;-75
2021/04/30 09:34:19;;;;;;;11.75;7.07;;;11.30;90.40;;;;;;5074031;28;20099;-74
2021/04/30 09:36:57;;;;;;;10.32;7.38;;;11.40;90.30;;;;;;5072147;28;20451;-75
2021/04/30 09:39:25;;;;;;;12.38;8.10;;;11.60;90.20;;;;;;5067448;28;20049;-76
2021/04/30 09:42:06;;;;;;;13.27;9.13;;;11.70;90.00;;;;;;5061620;28;20489;-76
2021/04/30 09:44:34;;;;;;;16.92;9.82;;;11.90;89.60;;;;;;5065042;28;20086;-74
2021/04/30 09:47:17;;;;;;;14.35;8.50;;;11.90;89.00;;;;;;5070508;28;20044;-74
2021/04/30 09:49:44;;;;;;;14.88;9.43;;;11.90;88.90;;;;;;5056901;28;20036;-74
2021/04/30 09:52:12;;;;;;;11.60;8.40;;;11.90;89.00;;;;;;5073973;28;20041;-75
2021/04/30 09:54:40;;;;;;;16.30;10.77;;;11.80;89.00;;;;;;5025785;28;20044;-76
2021/04/30 09:57:17;;;;;;;14.95;10.00;;;11.60;88.80;;;;;;5068596;28;20045;-75
2021/04/30 09:59:55;;;;;;;13.75;10.13;;;11.50;89.10;;;;;;5062829;28;20499;-75
2021/04/30 10:02:24;;;;;;;15.27;10.57;;;11.30;89.30;;;;;;5044017;28;20401;-76
2021/04/30 10:04:53;;;;;;;13.93;10.00;;;11.10;89.50;;;;;;5066340;28;20036;-76
2021/04/30 10:07:34;;;;;;;13.00;9.15;;;11.00;89.60;;;;;;5075514;28;20045;-74
2021/04/30 10:10:05;;;;;;;18.95;12.48;;;10.90;89.80;;;;;;5077531;28;20059;-76
2021/04/30 10:12:33;;;;;;;17.10;11.13;;;10.80;89.40;;;;;;5064850;28;21679;-75
2021/04/30 10:14:59;;;;;;;18.30;11.05;;;10.80;89.70;;;;;;5071078;28;20041;-77
2021/04/30 10:17:26;;;;;;;14.55;10.60;;;10.80;89.70;;;;;;5066644;28;20036;-76
2021/04/30 10:19:53;;;;;;;15.82;10.45;;;10.90;89.60;;;;;;5074088;28;20419;-76
2021/04/30 10:22:26;;;;;;;15.23;10.52;;;11.00;89.40;;;;;;5054849;28;20041;-74
2021/04/30 10:25:15;;;;;;;14.27;9.73;;;11.10;89.50;;;;;;5049749;28;20446;-76
2021/04/30 10:27:48;;;;;;;13.38;9.73;;;11.20;89.20;;;;;;5049109;28;20032;-76
2021/04/30 10:30:22;;;;;;;13.20;8.95;;;11.30;89.10;;;;;;5064990;28;20036;-75
2021/04/30 10:32:51;;;;;;;14.77;9.70;;;11.40;89.80;;;;;;5064904;28;20041;-76
2021/04/30 10:35:25;;;;;;;16.45;9.77;;;11.30;89.10;;;;;;5069438;28;20508;-76
2021/04/30 10:37:57;;;;;;;16.15;11.57;;;11.30;89.10;;;;;;5073037;28;20061;-76
2021/04/30 10:40:24;;;;;;;;;;;11.10;89.00;;;;;;5063774;28;20496;-77
2021/04/30 10:42:51;;;;;;;18.83;11.98;;;10.90;89.50;;;;;;5071195;28;19920;-79
2021/04/30 10:45:19;;;;;;;19.58;12.50;;;10.70;89.60;;;;;;5071846;28;20036;-78
2021/04/30 10:48:06;;;;;;;16.85;10.68;;;10.50;89.80;;;;;;5063181;28;20397;-76
2021/04/30 10:50:34;;;;;;;16.52;10.98;;;10.40;90.20;;;;;;5073535;28;20484;-77
2021/04/30 10:53:24;;;;;;;13.57;10.07;;;10.30;90.30;;;;;;5052398;28;20052;-78
2021/04/30 10:55:52;;;;;;;12.82;8.50;;;10.30;90.40;;;;;;5062441;28;20480;-76
2021/04/30 10:58:38;;;;;;;10.82;7.80;;;10.30;90.40;;;;;;5068792;28;20040;-76
2021/04/30 11:01:21;;;;;;;9.38;7.07;;;10.30;90.30;;;;;;5053912;28;20033;-76
2021/04/30 11:04:09;;;;;;;9.32;5.95;;;10.20;90.40;;;;;;5037235;28;20492;-78
2021/04/30 11:06:42;;;;;;;10.15;7.00;;;10.20;90.50;;;;;;5071898;28;20044;-75
2021/04/30 11:09:14;;;;;;;;;;;10.20;90.50;;;;;;5062490;28;20047;-76
2021/04/30 11:11:43;;;;;;;8.82;5.78;;;10.30;90.60;;;;;;5070270;28;20367;-75
2021/04/30 11:14:19;;;;;;;8.18;6.70;;;10.60;90.50;;;;;;5071746;28;20063;-73
2021/04/30 11:16:46;;;;;;;9.13;6.00;;;11.00;90.20;;;;;;5071952;28;20040;-78
2021/04/30 11:19:12;;;;;;;10.05;6.47;;;11.20;89.80;;;;;;5051059;28;20091;-78
2021/04/30 11:21:51;;;;;;;10.85;6.93;;;11.40;89.80;;;;;;5069928;28;20055;-78
2021/04/30 11:24:34;;;;;;;13.45;7.68;;;11.50;89.70;;;;;;5072698;28;20067;-76
2021/04/30 11:27:19;;;;;;;11.38;7.78;;;11.40;89.70;;;;;;5067341;28;20040;-76
2021/04/30 11:29:46;;;;;;;13.07;8.85;;;11.40;89.90;;;;;;5070892;28;20040;-77
2021/04/30 11:32:31;;;;;;;12.30;8.35;;;11.30;90.00;;;;;;5068047;28;20153;-76
2021/04/30 11:34:59;;;;;;;11.80;7.80;;;11.30;90.10;;;;;;5070776;28;20488;-78
2021/04/30 11:37:30;;;;;;;13.90;9.20;;;11.40;90.20;;;;;;5070848;28;20040;-76
2021/04/30 11:40:21;;;;;;;15.32;9.82;;;11.50;90.10;;;;;;5069988;28;20044;-76
2021/04/30 11:43:03;;;;;;;16.17;11.27;;;11.60;90.00;;;;;;5053927;28;20041;-79
2021/04/30 11:45:30;;;;;;;13.95;10.25;;;11.80;89.70;;;;;;5070791;28;20040;-79
2021/04/30 11:47:58;;;;;;;16.35;10.90;;;11.90;89.60;;;;;;5076369;28;20032;-78
2021/04/30 11:50:25;;;;;;;16.65;10.45;;;12.00;89.30;;;;;;5055417;28;20051;-75
2021/04/30 11:52:51;;;;;;;17.05;11.10;;;12.10;89.20;;;;;;5051380;28;20045;-74
2021/04/30 11:55:21;;;;;;;14.10;10.07;;;12.10;89.00;;;;;;5053381;28;20500;-76
2021/04/30 11:57:58;;;;;;;11.85;8.63;;;12.10;89.10;;;;;;5069240;28;20102;-78
2021/04/30 12:00:27;;;;;;;13.23;9.63;;;12.10;89.10;;;;;;5055722;28;20060;-77
2021/04/30 12:03:06;;;;;;;13.55;8.82;;;12.10;89.10;;;;;;5061473;28;20067;-74
2021/04/30 12:05:37;;;;;;;11.60;8.35;;;12.10;89.00;;;;;;5070641;28;20394;-75
2021/04/30 12:08:05;;;;;;;11.25;8.38;;;12.10;89.00;;;;;;5049505;28;20119;-74
2021/04/30 12:10:34;;;;;;;12.00;8.68;;;12.10;88.90;;;;;;5069873;28;20060;-76
2021/04/30 12:13:01;;;;;;;11.25;8.05;;;12.10;88.80;;;;;;5063189;28;20056;-76
2021/04/30 12:15:40;;;;;;;12.23;7.90;;;12.20;88.90;;;;;;5058703;28;20098;-76
2021/04/30 12:18:07;;;;;;;11.88;8.32;;;12.30;88.90;;;;;;5070999;28;20049;-75
2021/04/30 12:20:36;;;;;;;12.18;7.47;;;12.30;88.90;;;;;;5069897;28;20102;-76
2021/04/30 12:23:13;;;;;;;10.07;7.25;;;12.40;88.90;;;;;;5071263;28;20044;-74
2021/04/30 12:25:52;;;;;;;9.10;6.18;;;13.10;88.40;;;;;;5073191;28;20052;-77
2021/04/30 12:28:21;;;;;;;11.70;9.75;;;13.90;86.60;;;;;;5084498;28;20413;-76
2021/04/30 12:30:53;;;;;;;13.70;10.02;;;14.40;85.20;;;;;;5068604;28;20052;-76
2021/04/30 12:33:28;;;;;;;13.23;10.65;;;15.10;83.60;;;;;;5081132;28;20098;-77
2021/04/30 12:35:58;;;;;;;13.95;11.10;;;15.50;81.90;;;;;;5066142;28;20056;-74
2021/04/30 12:38:26;;;;;;;13.35;9.90;;;15.50;81.40;;;;;;5066179;28;20106;-75
2021/04/30 12:40:53;;;;;;;12.18;9.27;;;16.10;81.00;;;;;;5070999;28;20083;-77
2021/04/30 12:43:27;;;;;;;12.10;9.15;;;16.80;80.00;;;;;;5056887;28;20037;-75
2021/04/30 12:45:56;;;;;;;14.30;9.13;;;17.30;78.50;;;;;;5054160;28;20514;-75
2021/04/30 12:48:24;;;;;;;11.23;8.57;;;17.20;78.70;;;;;;5066043;28;20060;-75
2021/04/30 12:50:51;;;;;;;15.05;11.38;;;17.30;77.70;;;;;;5068934;28;20094;-74
2021/04/30 12:53:18;;;;;;;12.05;9.82;;;16.80;77.70;;;;;;5067996;28;20507;-74
2021/04/30 12:55:44;;;;;;;12.38;9.18;;;16.00;78.80;;;;;;5064982;28;20174;-75